createdAt,value
2023-04-13T00:04:57.839Z,6.38
2023-04-13T00:10:03.886Z,6.36
2023-04-13T00:15:08.801Z,6.40
2023-04-13T00:20:14.716Z,6.43
2023-04-13T00:25:20.098Z,6.40
2023-04-13T00:30:24.021Z,6.32
2023-04-13T00:35:27.829Z,6.35
2023-04-13T00:40:33.072Z,6.39
2023-04-13T00:45:39.047Z,6.42
2023-04-13T00:50:43.743Z,6.48
2023-04-13T00:55:49.032Z,6.50
2023-04-13T01:00:52.762Z,6.47
2023-04-13T01:06:13.467Z,6.52
2023-04-13T01:11:28.852Z,6.46
2023-04-13T01:16:37.765Z,6.45
2023-04-13T01:21:43.932Z,6.26
2023-04-13T01:26:58.477Z,6.26
2023-04-13T01:32:04.066Z,6.25
2023-04-13T01:37:09.204Z,6.24
2023-04-13T01:42:13.408Z,6.25
2023-04-13T01:47:25.617Z,6.22
2023-04-13T01:52:31.533Z,6.21
2023-04-13T01:57:37.979Z,6.20
2023-04-13T02:02:45.189Z,6.14
2023-04-13T02:07:49.183Z,6.10
2023-04-13T02:12:55.366Z,6.20
2023-04-13T02:18:00.798Z,6.20
2023-04-13T02:23:04.601Z,6.27
2023-04-13T02:28:11.240Z,6.18
2023-04-13T02:33:16.879Z,6.03
2023-04-13T02:38:20.861Z,5.97
2023-04-13T02:43:26.465Z,5.95
2023-04-13T02:48:31.786Z,6.01
2023-04-13T02:53:36.426Z,5.97
2023-04-13T02:58:41.755Z,6.03
2023-04-13T03:03:48.840Z,5.94
2023-04-13T03:08:54.287Z,5.92
2023-04-13T03:14:01.334Z,5.95
2023-04-13T03:19:08.386Z,5.99
2023-04-13T03:24:13.522Z,6.03
2023-04-13T03:29:17.528Z,6.07
2023-04-13T03:34:23.235Z,5.99
2023-04-13T03:39:29.125Z,6.03
2023-04-13T03:44:33.611Z,6.06
2023-04-13T03:49:41.464Z,6.11
2023-04-13T03:54:46.572Z,6.12
2023-04-13T03:59:51.602Z,6.10
2023-04-13T04:05:00.261Z,6.08
2023-04-13T04:10:04.755Z,6.12
2023-04-13T04:15:10.469Z,6.13
2023-04-13T04:20:17.530Z,6.11
2023-04-13T04:25:22.926Z,6.11
2023-04-13T04:30:29.835Z,6.18
2023-04-13T04:35:35.146Z,6.12
2023-04-13T04:40:45.252Z,6.11
2023-04-13T04:45:52.022Z,6.03
2023-04-13T04:50:57.998Z,5.91
2023-04-13T04:56:02.734Z,6.03
2023-04-13T05:01:10.758Z,6.12
2023-04-13T05:06:16.666Z,6.10
2023-04-13T05:11:20.644Z,6.09
2023-04-13T05:16:26.043Z,6.17
2023-04-13T05:21:32.197Z,6.19
2023-04-13T05:26:36.374Z,6.23
2023-04-13T05:31:40.524Z,6.29
2023-04-13T05:36:45.706Z,6.35
2023-04-13T05:41:50.018Z,6.37
2023-04-13T05:46:54.812Z,6.30
2023-04-13T05:52:00.967Z,6.24
2023-04-13T05:57:08.188Z,6.30
2023-04-13T06:02:12.815Z,6.21
2023-04-13T06:07:17.919Z,6.24
2023-04-13T06:12:21.589Z,6.33
2023-04-13T06:17:25.545Z,6.31
2023-04-13T06:22:31.037Z,6.40
2023-04-13T06:27:35.438Z,6.41
2023-04-13T06:32:39.558Z,6.46
2023-04-13T06:37:45.515Z,6.53
2023-04-13T06:42:50.386Z,6.56
2023-04-13T06:47:57.096Z,6.55
2023-04-13T06:53:03.328Z,6.56
2023-04-13T06:58:07.244Z,6.70
2023-04-13T07:03:11.449Z,6.79
2023-04-13T07:08:19.179Z,6.90
2023-04-13T07:13:25.672Z,7.03
2023-04-13T07:18:30.975Z,7.11
2023-04-13T07:23:36.203Z,7.25
2023-04-13T07:28:40.148Z,7.25
2023-04-13T07:33:44.366Z,7.43
2023-04-13T07:38:50.043Z,7.42
2023-04-13T07:43:54.137Z,7.58
2023-04-13T07:48:58.500Z,7.69
2023-04-13T07:54:04.131Z,7.76
2023-04-13T07:59:08.364Z,7.82
2023-04-13T08:04:12.789Z,7.99
2023-04-13T08:09:19.150Z,8.04
2023-04-13T08:14:23.312Z,8.03
2023-04-13T08:19:27.155Z,8.12
2023-04-13T08:24:32.922Z,8.17
2023-04-13T08:29:36.712Z,8.37
2023-04-13T08:34:40.705Z,8.49
2023-04-13T08:39:46.343Z,8.59
2023-04-13T08:44:52.499Z,8.93
2023-04-13T08:49:58.097Z,9.15
2023-04-13T08:55:04.261Z,9.31
2023-04-13T09:00:16.382Z,9.35
2023-04-13T09:05:21.743Z,9.35
2023-04-13T09:10:28.652Z,9.32
2023-04-13T09:15:33.316Z,9.17
2023-04-13T09:20:38.540Z,9.42
2023-04-13T09:25:45.321Z,9.50
2023-04-13T09:30:49.152Z,9.68
2023-04-13T09:35:53.095Z,9.48
2023-04-13T09:40:58.919Z,8.99
2023-04-13T09:46:02.825Z,9.08
2023-04-13T09:51:08.702Z,9.01
2023-04-13T09:56:14.184Z,8.99
2023-04-13T10:01:18.961Z,8.99
2023-04-13T10:06:22.849Z,9.19
2023-04-13T10:11:27.998Z,9.56
2023-04-13T10:16:52.313Z,9.62
2023-04-13T10:21:57.283Z,9.37
2023-04-13T10:27:12.796Z,9.31
2023-04-13T10:32:23.981Z,9.62
2023-04-13T10:37:29.612Z,9.53
2023-04-13T10:42:52.028Z,9.49
2023-04-13T10:47:58.513Z,9.29
2023-04-13T10:53:05.004Z,9.46
2023-04-13T10:58:18.211Z,9.54
2023-04-13T11:03:23.549Z,9.96
2023-04-13T11:08:30.510Z,10.85
2023-04-13T11:13:35.878Z,11.19
2023-04-13T11:18:39.549Z,11.11
2023-04-13T11:23:44.119Z,11.15
2023-04-13T11:28:49.144Z,12.32
2023-04-13T11:33:52.938Z,11.93
2023-04-13T11:38:57.253Z,13.41
2023-04-13T11:44:04.144Z,12.33
2023-04-13T11:49:08.469Z,12.24
2023-04-13T11:54:12.371Z,13.20
2023-04-13T11:59:17.784Z,13.42
2023-04-13T12:04:23.889Z,12.69
2023-04-13T12:09:54.542Z,13.33
2023-04-13T12:15:10.751Z,12.47
2023-04-13T12:20:17.311Z,14.15
2023-04-13T12:25:23.913Z,15.26
2023-04-13T12:30:29.658Z,15.18
2023-04-13T12:35:33.453Z,15.47
2023-04-13T12:40:37.467Z,15.28
2023-04-13T12:45:42.521Z,15.76
2023-04-13T12:50:46.451Z,15.67
2023-04-13T12:55:50.146Z,17.56
2023-04-13T13:00:55.248Z,18.77
2023-04-13T13:05:59.037Z,18.95
2023-04-13T13:11:02.806Z,19.39
2023-04-13T13:16:08.546Z,17.71
2023-04-13T13:21:12.519Z,18.84
2023-04-13T13:31:24.314Z,20.00
2023-04-13T13:36:30.616Z,20.10
2023-04-13T13:41:34.703Z,18.79
2023-04-13T13:46:39.845Z,19.36
2023-04-13T13:51:43.879Z,19.91
2023-04-13T13:56:49.078Z,20.13
2023-04-13T14:01:54.232Z,20.52
2023-04-13T14:06:58.274Z,20.59
2023-04-13T14:12:02.383Z,21.35
2023-04-13T14:17:07.620Z,21.58
2023-04-13T14:22:11.507Z,21.53
2023-04-13T14:27:15.418Z,22.36
2023-04-13T14:32:20.746Z,21.65
2023-04-13T14:37:25.174Z,22.37
2023-04-13T14:42:30.756Z,21.47
2023-04-13T14:47:36.145Z,22.55
2023-04-13T14:52:40.341Z,21.64
2023-04-13T14:57:44.547Z,22.24
2023-04-13T15:02:50.802Z,23.09
2023-04-13T15:07:55.731Z,23.87
2023-04-13T15:12:59.455Z,21.34
2023-04-13T15:18:05.810Z,23.40
2023-04-13T15:23:09.858Z,23.71
2023-04-13T15:28:13.945Z,23.95
2023-04-13T15:33:19.060Z,24.37
2023-04-13T15:38:22.914Z,23.37
2023-04-13T15:43:26.808Z,23.31
2023-04-13T15:48:31.915Z,22.31
2023-04-13T15:53:35.998Z,21.98
2023-04-13T15:58:39.812Z,20.40
2023-04-13T16:03:45.138Z,20.09
2023-04-13T16:08:50.482Z,20.42
2023-04-13T16:13:57.977Z,20.95
2023-04-13T16:19:03.732Z,19.92
2023-04-13T16:24:08.557Z,19.36
2023-04-13T16:29:12.410Z,19.46
2023-04-13T16:34:25.531Z,19.18
2023-04-13T16:39:30.439Z,20.01
2023-04-13T16:44:34.222Z,19.89
2023-04-13T16:49:39.284Z,20.26
2023-04-13T16:54:43.943Z,18.82
2023-04-13T16:59:48.385Z,18.66
2023-04-13T17:04:54.584Z,18.43
2023-04-13T17:09:58.399Z,18.18
2023-04-13T17:15:02.227Z,18.10
2023-04-13T17:20:09.309Z,17.68
2023-04-13T17:25:13.408Z,17.66
2023-04-13T17:30:17.125Z,17.25
2023-04-13T17:35:22.302Z,17.25
2023-04-13T17:40:26.196Z,16.91
2023-04-13T17:45:29.975Z,16.55
2023-04-13T17:50:35.300Z,16.39
2023-04-13T17:55:39.806Z,16.18
2023-04-13T18:00:43.505Z,15.75
2023-04-13T18:05:48.693Z,15.55
2023-04-13T18:10:53.366Z,15.52
2023-04-13T18:15:58.296Z,15.39
2023-04-13T18:21:03.364Z,15.04
2023-04-13T18:26:07.201Z,14.39
2023-04-13T18:31:11.421Z,13.95
2023-04-13T18:36:17.280Z,13.50
2023-04-13T18:41:21.107Z,12.83
2023-04-13T18:46:26.483Z,12.51
2023-04-13T18:51:32.781Z,12.22
2023-04-13T18:56:36.607Z,12.16
2023-04-13T19:01:40.430Z,12.12
2023-04-13T19:06:45.712Z,11.82
2023-04-13T19:11:51.578Z,11.92
2023-04-13T19:16:55.682Z,11.72
2023-04-13T19:22:00.789Z,11.73
2023-04-13T19:27:04.627Z,11.73
2023-04-13T19:32:13.191Z,11.49
2023-04-13T19:37:18.394Z,11.62
2023-04-13T19:42:22.350Z,11.72
2023-04-13T19:47:26.474Z,11.63
2023-04-13T19:52:31.586Z,11.47
2023-04-13T19:57:36.728Z,11.53
2023-04-13T20:02:40.512Z,11.55
2023-04-13T20:07:45.641Z,11.54
2023-04-13T20:12:49.562Z,11.30
2023-04-13T20:17:53.312Z,11.13
2023-04-13T20:22:58.393Z,10.85
2023-04-13T20:28:02.245Z,10.90
2023-04-13T20:33:07.419Z,10.78
2023-04-13T20:38:13.877Z,10.73
2023-04-13T20:43:20.501Z,10.57
2023-04-13T20:53:34.045Z,10.38
2023-04-13T20:58:38.259Z,10.25
2023-04-13T21:03:42.216Z,10.09
2023-04-13T21:08:47.449Z,10.01
2023-04-13T21:13:51.185Z,9.86
2023-04-13T21:18:55.337Z,9.81
2023-04-13T21:24:00.637Z,9.71
2023-04-13T21:29:04.604Z,9.61
2023-04-13T21:34:08.380Z,9.53
2023-04-13T21:39:14.137Z,9.40
2023-04-13T21:44:29.245Z,9.28
2023-04-13T21:49:33.673Z,9.26
2023-04-13T21:54:38.756Z,9.18
2023-04-13T21:59:42.510Z,9.15
2023-04-13T22:04:46.235Z,9.10
2023-04-13T22:09:51.263Z,9.01
2023-04-13T22:14:55.361Z,8.95
2023-04-13T22:19:59.068Z,8.86
2023-04-13T22:25:04.176Z,8.78
2023-04-13T22:30:09.104Z,8.67
2023-04-13T22:35:13.179Z,8.59
2023-04-13T22:40:18.615Z,8.53
2023-04-13T22:45:22.541Z,8.56
2023-04-13T22:50:26.505Z,8.49
2023-04-13T22:55:31.611Z,8.41
2023-04-13T23:00:35.350Z,8.37
2023-04-13T23:05:39.194Z,8.30
2023-04-13T23:10:44.272Z,8.23
2023-04-13T23:15:48.158Z,8.17
2023-04-13T23:20:51.893Z,8.08
2023-04-13T23:25:56.948Z,8.00
2023-04-13T23:31:04.552Z,7.96
2023-04-13T23:36:09.114Z,7.90
2023-04-13T23:41:14.197Z,7.83
2023-04-13T23:46:18.123Z,7.76
2023-04-13T23:51:22.886Z,7.65
2023-04-13T23:56:28.334Z,7.61
